Time;durP1;ratioP1;P1;durP2;ratioP2;P2;SDS_P1;SDS_P2;PMS_P1;PMS_P2;Temp;Humidity;BMP_temperature;BMP_pressure;BME280_temperature;BME280_humidity;BME280_pressure;Samples;Min_cycle;Max_cycle;Signal;HPM_P1;HPM_P2
2022/09/03 00:01:20;;;;;;;3.45;2.95;;;20.20;45.40;;;;;;5076345;28;19908;-71
2022/09/03 00:03:51;;;;;;;3.47;2.83;;;20.10;45.90;;;;;;5076542;28;20027;-71
2022/09/03 00:06:30;;;;;;;6.25;3.17;;;20.10;46.50;;;;;;5076366;28;20017;-72
2022/09/03 00:09:11;;;;;;;3.97;2.95;;;20.00;47.30;;;;;;5076329;28;20031;-70
2022/09/03 00:11:52;;;;;;;4.22;3.08;;;19.90;47.00;;;;;;5076389;28;20039;-70
2022/09/03 00:14:38;;;;;;;6.32;3.40;;;19.90;47.70;;;;;;5076213;28;20089;-70
2022/09/03 00:17:19;;;;;;;4.82;3.03;;;19.80;47.40;;;;;;5076149;28;20021;-71
2022/09/03 00:19:56;;;;;;;3.88;3.20;;;19.80;47.10;;;;;;5076127;28;20074;-71
2022/09/03 00:22:36;;;;;;;4.95;3.05;;;19.80;47.10;;;;;;5076051;28;20029;-72
2022/09/03 00:25:06;;;;;;;6.22;3.50;;;19.90;46.30;;;;;;5075983;28;20026;-71
2022/09/03 00:27:36;;;;;;;3.92;3.40;;;19.90;46.60;;;;;;5075912;28;20039;-71
2022/09/03 00:30:11;;;;;;;4.45;3.20;;;19.90;47.60;;;;;;5075834;28;20017;-71
2022/09/03 00:32:53;;;;;;;3.42;2.88;;;19.70;47.80;;;;;;5075877;28;20025;-71
2022/09/03 00:35:36;;;;;;;3.30;2.90;;;19.60;47.70;;;;;;5075849;28;20032;-71
2022/09/03 00:38:02;;;;;;;5.25;3.03;;;19.50;48.00;;;;;;5075440;28;20013;-71
2022/09/03 00:40:55;;;;;;;6.15;3.30;;;19.50;47.70;;;;;;5075591;28;20104;-72
2022/09/03 00:43:39;;;;;;;;;;;19.60;48.00;;;;;;5076208;28;20048;-71
2022/09/03 00:46:41;;;;;;;3.63;2.90;;;19.60;47.40;;;;;;5075689;28;19905;-71
2022/09/03 00:49:28;;;;;;;3.63;3.13;;;19.70;47.20;;;;;;5075487;28;20032;-72
2022/09/03 00:52:05;;;;;;;7.07;3.50;;;19.70;47.40;;;;;;5075596;28;20049;-71
2022/09/03 00:54:39;;;;;;;4.65;3.25;;;19.70;47.90;;;;;;5075579;28;20020;-71
2022/09/03 00:57:29;;;;;;;5.22;3.40;;;19.70;47.60;;;;;;5075433;28;20085;-69
2022/09/03 00:59:56;;;;;;;4.43;3.10;;;19.70;48.30;;;;;;5075080;28;20060;-71
2022/09/03 01:02:37;;;;;;;4.28;3.20;;;19.70;47.00;;;;;;5075265;28;20013;-70
2022/09/03 01:05:17;;;;;;;4.13;3.38;;;19.70;46.50;;;;;;5075227;28;20028;-71
2022/09/03 01:07:45;;;;;;;5.65;3.42;;;19.70;47.40;;;;;;5075346;28;20082;-70
2022/09/03 01:10:24;;;;;;;7.30;3.60;;;19.70;47.80;;;;;;5075066;28;20017;-70
2022/09/03 01:12:53;;;;;;;5.53;3.30;;;19.70;47.90;;;;;;5075224;28;20049;-69
2022/09/03 01:15:32;;;;;;;3.47;2.90;;;19.60;48.10;;;;;;5075013;28;20029;-70
2022/09/03 01:18:17;;;;;;;5.93;3.45;;;19.60;48.10;;;;;;5075000;28;20055;-70
2022/09/03 01:21:01;;;;;;;5.00;3.22;;;19.60;47.10;;;;;;5075004;28;20032;-71
2022/09/03 01:23:55;;;;;;;4.50;2.97;;;19.50;47.90;;;;;;5075018;28;20017;-71
2022/09/03 01:26:26;;;;;;;3.58;2.95;;;19.60;47.00;;;;;;5072579;28;20033;-71
2022/09/03 01:29:20;;;;;;;5.30;3.30;;;19.50;47.60;;;;;;5074706;28;20024;-71
2022/09/03 01:31:56;;;;;;;5.88;3.72;;;19.50;47.60;;;;;;5074759;28;20021;-71
2022/09/03 01:34:45;;;;;;;6.40;3.40;;;19.50;47.70;;;;;;5074686;28;20044;-71
2022/09/03 01:37:29;;;;;;;5.05;3.40;;;19.50;47.70;;;;;;5074575;28;20045;-71
2022/09/03 01:40:17;;;;;;;6.55;3.80;;;19.50;48.00;;;;;;5074678;28;20024;-71
2022/09/03 01:42:59;;;;;;;3.92;3.50;;;19.50;47.90;;;;;;5074655;28;20044;-71
2022/09/03 01:45:27;;;;;;;;;;;19.40;48.00;;;;;;5074893;28;20454;-71
2022/09/03 01:48:19;;;;;;;5.85;3.10;;;19.30;48.00;;;;;;5073438;28;19908;-71
2022/09/03 01:51:01;;;;;;;6.40;3.67;;;19.30;49.00;;;;;;5074386;28;20051;-71
2022/09/03 01:53:37;;;;;;;;;;;19.20;49.10;;;;;;5074897;28;20028;-71
2022/09/03 01:56:16;;;;;;;4.63;3.38;;;19.10;48.80;;;;;;5074212;28;19911;-71
2022/09/03 01:59:05;;;;;;;5.30;3.38;;;19.00;48.80;;;;;;5074019;28;20399;-71
2022/09/03 02:01:57;;;;;;;5.85;3.33;;;19.00;49.10;;;;;;5074233;28;20024;-70
2022/09/03 02:04:25;;;;;;;6.93;3.15;;;19.10;49.10;;;;;;5069947;28;20037;-71
2022/09/03 02:06:53;;;;;;;9.82;3.20;;;19.10;48.90;;;;;;5074006;28;20035;-70
2022/09/03 02:09:19;;;;;;;6.82;3.53;;;19.10;48.90;;;;;;5073962;28;20021;-70
2022/09/03 02:12:08;;;;;;;4.97;3.00;;;19.10;49.10;;;;;;5073951;28;20083;-70
2022/09/03 02:14:35;;;;;;;4.25;3.50;;;19.10;48.80;;;;;;5074081;28;20021;-70
2022/09/03 02:17:04;;;;;;;6.22;3.85;;;19.10;48.80;;;;;;5073842;28;20035;-70
2022/09/03 02:19:30;;;;;;;5.82;3.67;;;19.10;48.40;;;;;;5073800;28;20025;-70
2022/09/03 02:21:57;;;;;;;4.72;3.22;;;19.10;48.30;;;;;;5073702;28;20025;-70
2022/09/03 02:24:27;;;;;;;4.55;3.35;;;19.10;48.40;;;;;;5073848;28;20017;-70
2022/09/03 02:26:53;;;;;;;4.43;2.95;;;19.10;48.30;;;;;;5073665;28;20058;-70
2022/09/03 02:29:20;;;;;;;5.05;3.03;;;19.10;48.40;;;;;;5073558;28;20021;-70
2022/09/03 02:31:46;;;;;;;4.78;3.03;;;19.10;48.30;;;;;;5073608;28;20021;-70
2022/09/03 02:34:11;;;;;;;4.70;2.92;;;19.00;48.50;;;;;;5073556;28;20083;-70
2022/09/03 02:36:41;;;;;;;6.15;3.20;;;18.90;48.70;;;;;;5073511;28;20052;-70
2022/09/03 02:39:07;;;;;;;5.25;2.97;;;19.00;48.80;;;;;;5073541;28;20043;-70
2022/09/03 02:41:33;;;;;;;3.95;3.10;;;18.90;49.00;;;;;;5073397;28;20085;-70
2022/09/03 02:44:12;;;;;;;4.70;3.60;;;18.90;50.00;;;;;;5073407;28;20047;-70
2022/09/03 02:46:45;;;;;;;3.85;3.08;;;18.90;49.20;;;;;;5073421;28;20020;-70
2022/09/03 02:49:11;;;;;;;6.03;3.15;;;19.00;49.40;;;;;;5073434;28;20029;-70
2022/09/03 02:51:40;;;;;;;3.88;3.30;;;19.00;48.90;;;;;;5073308;28;20112;-70
2022/09/03 02:54:06;;;;;;;5.25;3.20;;;18.90;49.20;;;;;;5073297;28;20051;-70
2022/09/03 02:56:32;;;;;;;5.63;3.20;;;19.00;49.30;;;;;;5073245;28;20053;-70
2022/09/03 02:58:59;;;;;;;3.75;3.08;;;18.90;49.10;;;;;;5072744;28;20068;-70
2022/09/03 03:01:25;;;;;;;4.65;3.20;;;18.80;48.90;;;;;;5073121;28;20028;-70
2022/09/03 03:03:51;;;;;;;4.35;3.30;;;18.80;49.00;;;;;;5073180;28;20025;-70
2022/09/03 03:06:19;;;;;;;3.58;2.50;;;18.70;49.10;;;;;;5073155;28;20021;-70
2022/09/03 03:08:45;;;;;;;4.82;3.10;;;18.70;48.80;;;;;;5073143;28;20104;-71
2022/09/03 03:11:11;;;;;;;5.20;3.30;;;18.70;49.00;;;;;;5073115;28;20029;-70
2022/09/03 03:13:37;;;;;;;5.03;3.10;;;18.60;48.90;;;;;;5073087;28;20060;-70
2022/09/03 03:16:07;;;;;;;5.15;2.90;;;18.60;49.20;;;;;;5073042;28;20025;-70
2022/09/03 03:18:33;;;;;;;5.32;3.35;;;18.60;49.60;;;;;;5073094;28;20021;-70
2022/09/03 03:21:10;;;;;;;3.90;3.10;;;18.60;49.50;;;;;;5073057;28;20025;-70
2022/09/03 03:23:36;;;;;;;4.35;2.97;;;18.60;49.70;;;;;;5072982;28;20029;-70
2022/09/03 03:26:04;;;;;;;3.20;2.83;;;18.60;49.40;;;;;;5072946;28;20029;-70
2022/09/03 03:28:32;;;;;;;4.95;3.10;;;18.60;50.10;;;;;;5072887;28;20484;-70
2022/09/03 03:31:06;;;;;;;5.40;3.22;;;18.60;50.00;;;;;;5072919;28;20025;-70
2022/09/03 03:33:32;;;;;;;5.18;3.10;;;18.60;49.80;;;;;;5072928;28;20051;-71
2022/09/03 03:35:58;;;;;;;5.03;3.10;;;18.60;49.40;;;;;;5072868;28;20024;-70
2022/09/03 03:38:23;;;;;;;4.65;3.35;;;18.60;49.80;;;;;;5072848;28;20025;-71
2022/09/03 03:40:49;;;;;;;5.63;2.90;;;18.60;49.90;;;;;;5072758;28;20033;-70
2022/09/03 03:43:14;;;;;;;4.85;3.67;;;18.60;49.90;;;;;;5072832;28;20476;-71
2022/09/03 03:45:40;;;;;;;7.35;3.13;;;18.50;49.90;;;;;;5072791;28;20073;-71
2022/09/03 03:48:06;;;;;;;5.95;3.17;;;18.50;50.00;;;;;;5072776;28;20446;-70
2022/09/03 03:50:31;;;;;;;3.78;3.05;;;18.40;50.00;;;;;;5072728;28;20025;-70
2022/09/03 03:53:00;;;;;;;6.28;3.28;;;18.40;50.40;;;;;;5072725;28;20049;-70
2022/09/03 03:55:25;;;;;;;6.50;3.20;;;18.40;50.60;;;;;;5072687;28;20021;-70
2022/09/03 03:57:51;;;;;;;3.55;2.90;;;18.40;50.50;;;;;;5072679;28;20369;-70
2022/09/03 04:00:17;;;;;;;4.70;3.17;;;18.40;50.40;;;;;;5072459;28;20045;-70
2022/09/03 04:02:42;;;;;;;4.95;2.90;;;18.40;50.20;;;;;;5072588;28;20025;-70
2022/09/03 04:05:08;;;;;;;5.50;3.13;;;18.30;50.50;;;;;;5072612;28;20031;-70
2022/09/03 04:07:35;;;;;;;5.55;3.10;;;18.40;50.70;;;;;;5072590;28;20021;-70
2022/09/03 04:10:00;;;;;;;5.15;2.95;;;18.30;50.70;;;;;;5072592;28;20079;-70
2022/09/03 04:12:26;;;;;;;6.35;3.47;;;18.30;50.60;;;;;;5074825;28;20020;-70
2022/09/03 04:14:52;;;;;;;4.75;3.20;;;18.30;50.90;;;;;;5076231;28;20382;-70
2022/09/03 04:17:17;;;;;;;4.05;3.10;;;18.30;51.10;;;;;;5076162;28;20029;-70
2022/09/03 04:19:44;;;;;;;4.07;3.00;;;18.20;51.00;;;;;;5076057;28;20037;-70
2022/09/03 04:22:11;;;;;;;4.47;3.10;;;18.10;50.60;;;;;;5075953;28;20032;-71
2022/09/03 04:24:37;;;;;;;3.50;2.65;;;18.10;50.70;;;;;;5076009;28;20434;-70
2022/09/03 04:27:03;;;;;;;4.38;2.97;;;18.10;50.80;;;;;;5075963;28;20044;-70
2022/09/03 04:29:30;;;;;;;4.45;2.85;;;18.10;50.90;;;;;;5075854;28;20112;-70
2022/09/03 04:34:40;;;;;;;3.88;2.80;;;18.10;51.20;;;;;;5075946;28;20064;-70
2022/09/03 04:37:05;;;;;;;5.13;2.95;;;18.10;51.30;;;;;;5075765;28;20033;-70
2022/09/03 04:39:31;;;;;;;4.18;3.15;;;18.10;51.40;;;;;;5075725;28;20033;-70
2022/09/03 04:41:57;;;;;;;4.72;3.15;;;18.10;51.10;;;;;;5075595;28;20025;-70
2022/09/03 04:44:22;;;;;;;4.07;3.40;;;18.10;51.20;;;;;;5075614;28;20021;-70
2022/09/03 04:46:48;;;;;;;3.88;3.28;;;18.10;51.10;;;;;;5075711;28;20029;-70
2022/09/03 04:49:14;;;;;;;3.45;3.00;;;18.10;51.30;;;;;;5075528;28;20028;-70
2022/09/03 04:51:39;;;;;;;4.25;3.17;;;18.10;51.30;;;;;;5075466;28;20059;-70
2022/09/03 04:54:05;;;;;;;3.85;2.90;;;18.00;51.50;;;;;;5075426;28;20037;-70
2022/09/03 04:56:33;;;;;;;4.63;3.13;;;18.00;51.30;;;;;;5075408;28;20109;-69
2022/09/03 04:59:04;;;;;;;4.22;3.22;;;18.00;51.10;;;;;;5075196;28;20067;-70
2022/09/03 05:01:31;;;;;;;6.65;3.22;;;18.00;51.50;;;;;;5075253;28;20029;-70
2022/09/03 05:03:58;;;;;;;4.03;3.13;;;18.00;51.50;;;;;;5075464;28;20021;-70
2022/09/03 05:06:28;;;;;;;5.18;3.40;;;18.00;51.60;;;;;;5075216;28;20032;-69
2022/09/03 05:08:55;;;;;;;5.68;3.55;;;18.00;52.80;;;;;;5075150;28;20032;-69
2022/09/03 05:11:21;;;;;;;4.38;3.22;;;18.10;51.90;;;;;;5075149;28;20028;-69
2022/09/03 05:13:52;;;;;;;4.88;3.08;;;18.10;51.80;;;;;;5075117;28;20032;-69
2022/09/03 05:16:19;;;;;;;3.28;2.97;;;18.00;52.30;;;;;;5075048;28;20025;-69
2022/09/03 05:18:45;;;;;;;5.75;3.22;;;18.00;51.60;;;;;;5074983;28;20036;-69
2022/09/03 05:21:17;;;;;;;4.07;3.22;;;18.10;51.90;;;;;;5074868;28;20031;-69
2022/09/03 05:23:44;;;;;;;4.78;3.00;;;18.10;52.10;;;;;;5074895;28;20070;-69
2022/09/03 05:26:13;;;;;;;5.18;2.80;;;17.90;51.90;;;;;;5074873;28;20467;-69
2022/09/03 05:28:40;;;;;;;4.97;2.90;;;18.00;51.90;;;;;;5073757;28;20029;-69
2022/09/03 05:31:10;;;;;;;6.55;2.97;;;18.00;52.20;;;;;;5074791;28;20056;-69
2022/09/03 05:33:38;;;;;;;4.60;2.70;;;17.90;52.00;;;;;;5074720;28;20029;-69
2022/09/03 05:36:07;;;;;;;4.55;2.97;;;18.00;51.90;;;;;;5074676;28;20025;-69
2022/09/03 05:38:33;;;;;;;5.30;3.00;;;17.90;52.30;;;;;;5074609;28;20060;-69
2022/09/03 05:41:00;;;;;;;5.82;3.08;;;17.90;52.20;;;;;;5074490;28;20025;-69
2022/09/03 05:43:27;;;;;;;3.95;2.80;;;17.90;51.90;;;;;;5074508;28;20021;-70
2022/09/03 05:45:57;;;;;;;4.50;2.38;;;17.90;51.70;;;;;;5074465;28;20025;-69
2022/09/03 05:48:23;;;;;;;3.45;2.88;;;18.00;51.90;;;;;;5074456;28;20021;-69
2022/09/03 05:50:48;;;;;;;7.13;2.90;;;18.00;51.90;;;;;;5074394;28;20028;-69
2022/09/03 05:53:15;;;;;;;4.57;2.63;;;18.00;52.10;;;;;;5074312;28;20462;-69
2022/09/03 05:55:41;;;;;;;3.30;3.00;;;18.00;52.10;;;;;;5074274;28;20024;-69
2022/09/03 05:58:06;;;;;;;6.95;2.95;;;18.00;52.00;;;;;;5074223;28;20033;-69
2022/09/03 06:00:32;;;;;;;3.72;2.65;;;17.90;51.90;;;;;;5073966;28;20060;-70
2022/09/03 06:02:58;;;;;;;3.15;2.70;;;18.00;52.00;;;;;;5074142;28;20025;-70
2022/09/03 06:05:24;;;;;;;4.68;3.30;;;18.00;51.90;;;;;;5074083;28;20542;-70
2022/09/03 06:07:51;;;;;;;4.07;2.70;;;17.90;53.20;;;;;;5074035;28;20037;-70
2022/09/03 06:10:16;;;;;;;3.75;2.60;;;17.90;52.30;;;;;;5074013;28;20043;-70
2022/09/03 06:12:48;;;;;;;3.40;2.80;;;17.90;52.50;;;;;;5073960;28;20033;-70
2022/09/03 06:15:15;;;;;;;3.60;2.58;;;18.00;52.30;;;;;;5073981;28;20016;-70
2022/09/03 06:17:41;;;;;;;4.15;2.72;;;18.00;52.60;;;;;;5073819;28;20032;-70
2022/09/03 06:20:07;;;;;;;4.43;2.90;;;18.00;52.40;;;;;;5073883;28;20031;-70
2022/09/03 06:22:33;;;;;;;3.10;2.70;;;18.00;52.40;;;;;;5073799;28;20025;-71
2022/09/03 06:24:58;;;;;;;4.63;2.42;;;18.00;52.40;;;;;;5073762;28;20089;-71
2022/09/03 06:27:24;;;;;;;4.53;2.75;;;18.10;52.40;;;;;;5073725;28;20017;-71
2022/09/03 06:29:50;;;;;;;6.32;2.60;;;18.10;52.50;;;;;;5073601;28;20388;-71
2022/09/03 06:32:15;;;;;;;4.18;2.63;;;18.20;52.50;;;;;;5073632;28;20025;-71
2022/09/03 06:34:41;;;;;;;4.63;2.70;;;18.20;52.30;;;;;;5073171;28;20435;-70
2022/09/03 06:37:07;;;;;;;5.43;2.80;;;18.20;52.10;;;;;;5073548;28;20047;-70
2022/09/03 06:39:32;;;;;;;3.85;2.72;;;18.20;52.40;;;;;;5073497;28;20041;-71
2022/09/03 06:41:58;;;;;;;3.33;2.40;;;18.30;52.00;;;;;;5073403;28;20033;-70
2022/09/03 06:44:23;;;;;;;5.88;2.40;;;18.30;52.00;;;;;;5073452;28;20040;-71
2022/09/03 06:46:52;;;;;;;5.55;2.35;;;18.20;53.20;;;;;;5073406;28;20061;-70
2022/09/03 06:49:19;;;;;;;3.60;2.22;;;18.30;52.20;;;;;;5072385;28;20029;-70
2022/09/03 06:51:44;;;;;;;3.53;2.35;;;18.30;52.30;;;;;;5073416;28;20033;-70
2022/09/03 06:54:11;;;;;;;3.00;2.38;;;18.40;52.40;;;;;;5073290;28;20068;-69
2022/09/03 06:56:40;;;;;;;3.20;2.17;;;18.40;52.10;;;;;;5073288;28;20025;-71
2022/09/03 06:59:08;;;;;;;7.07;2.40;;;18.50;52.00;;;;;;5073118;28;20041;-71
2022/09/03 07:01:34;;;;;;;2.60;2.00;;;18.50;51.70;;;;;;5073132;28;20029;-71
2022/09/03 07:04:02;;;;;;;5.80;2.33;;;18.60;51.80;;;;;;5073172;28;20037;-70
2022/09/03 07:06:31;;;;;;;4.32;1.92;;;18.60;51.60;;;;;;5073190;28;20048;-70
2022/09/03 07:08:58;;;;;;;5.45;1.70;;;18.70;51.60;;;;;;5073155;28;20021;-71
2022/09/03 07:11:28;;;;;;;3.58;2.15;;;18.80;51.50;;;;;;5073146;28;20021;-70
2022/09/03 07:13:54;;;;;;;4.75;2.00;;;18.80;51.00;;;;;;5073107;28;20027;-71
2022/09/03 07:16:21;;;;;;;3.25;2.08;;;18.90;51.10;;;;;;5073067;28;20096;-70
2022/09/03 07:18:48;;;;;;;2.80;2.20;;;19.00;51.90;;;;;;5073165;28;20047;-70
2022/09/03 07:21:15;;;;;;;7.15;2.10;;;19.00;50.70;;;;;;5072970;28;20100;-70
2022/09/03 07:23:42;;;;;;;5.00;2.22;;;19.10;50.40;;;;;;5073030;28;20021;-71
2022/09/03 07:26:16;;;;;;;3.53;2.22;;;19.10;50.60;;;;;;5072973;28;20029;-71
2022/09/03 07:28:44;;;;;;;2.90;1.95;;;19.20;50.20;;;;;;5072892;28;20483;-70
2022/09/03 07:31:18;;;;;;;4.10;2.05;;;19.30;50.40;;;;;;5073058;28;20032;-70
2022/09/03 07:33:45;;;;;;;4.35;2.30;;;19.30;50.20;;;;;;5072953;28;20028;-71
2022/09/03 07:36:14;;;;;;;4.82;2.13;;;19.40;50.20;;;;;;5072854;28;20036;-71
2022/09/03 07:38:41;;;;;;;3.85;1.92;;;19.50;49.30;;;;;;5072887;28;20025;-70
2022/09/03 07:41:08;;;;;;;3.70;2.08;;;19.50;49.30;;;;;;5072772;28;20029;-71
2022/09/03 07:43:38;;;;;;;4.13;2.08;;;19.60;49.10;;;;;;5072787;28;20021;-71
2022/09/03 07:46:05;;;;;;;5.03;2.30;;;19.70;49.50;;;;;;5073002;28;20021;-71
2022/09/03 07:48:31;;;;;;;6.53;2.35;;;19.80;49.30;;;;;;5076674;28;20028;-71
2022/09/03 07:51:00;;;;;;;4.32;2.05;;;19.90;49.00;;;;;;5075694;28;20037;-71
2022/09/03 07:53:27;;;;;;;3.28;2.15;;;19.90;48.10;;;;;;5076586;28;20357;-71
2022/09/03 07:55:53;;;;;;;6.15;2.05;;;20.00;48.00;;;;;;5076566;28;20048;-71
2022/09/03 07:58:23;;;;;;;4.68;2.10;;;20.10;49.40;;;;;;5076352;28;20044;-70
2022/09/03 08:00:49;;;;;;;3.70;2.15;;;20.20;48.20;;;;;;5076457;28;20033;-70
2022/09/03 08:03:17;;;;;;;2.78;1.95;;;20.30;48.40;;;;;;5076380;28;20033;-71
2022/09/03 08:05:43;;;;;;;5.95;2.28;;;20.40;47.10;;;;;;5076337;28;20017;-71
2022/09/03 08:08:09;;;;;;;4.13;2.15;;;20.40;46.50;;;;;;5076291;28;20024;-71
2022/09/03 08:10:37;;;;;;;3.15;1.77;;;20.40;46.60;;;;;;5076284;28;20079;-71
2022/09/03 08:13:04;;;;;;;3.90;1.80;;;20.50;45.60;;;;;;5076230;28;20089;-71
2022/09/03 08:15:30;;;;;;;2.83;1.70;;;20.60;46.30;;;;;;5076140;28;20040;-71
2022/09/03 08:17:56;;;;;;;4.75;2.10;;;20.70;46.50;;;;;;5076247;28;20039;-71
2022/09/03 08:20:21;;;;;;;3.83;1.98;;;20.80;46.50;;;;;;5075999;28;20025;-71
2022/09/03 08:22:47;;;;;;;5.40;2.17;;;20.90;46.20;;;;;;5076066;28;20037;-71
2022/09/03 08:25:13;;;;;;;4.35;1.80;;;21.00;46.10;;;;;;5075963;28;20026;-71
2022/09/03 08:27:42;;;;;;;3.67;1.92;;;21.10;45.60;;;;;;5075975;28;20025;-71
2022/09/03 08:30:10;;;;;;;3.83;2.00;;;21.20;45.80;;;;;;5075893;28;20064;-71
2022/09/03 08:32:39;;;;;;;4.07;1.92;;;21.20;45.80;;;;;;5075965;28;20024;-71
2022/09/03 08:35:06;;;;;;;5.90;2.00;;;21.40;45.50;;;;;;5075830;28;20025;-71
2022/09/03 08:37:31;;;;;;;7.47;2.30;;;21.40;45.80;;;;;;5075683;28;20032;-71
2022/09/03 08:39:59;;;;;;;6.25;2.17;;;21.40;44.90;;;;;;5075737;28;20025;-71
2022/09/03 08:42:27;;;;;;;5.88;2.70;;;21.50;44.50;;;;;;5075620;28;20028;-71
2022/09/03 08:45:06;;;;;;;2.60;1.75;;;21.50;44.70;;;;;;5075616;28;20076;-71
2022/09/03 08:47:45;;;;;;;2.42;1.80;;;21.70;44.30;;;;;;5075600;28;20013;-71
2022/09/03 08:50:16;;;;;;;3.22;2.33;;;21.80;44.80;;;;;;5075741;28;20017;-71
2022/09/03 08:52:49;;;;;;;4.85;2.10;;;21.80;43.40;;;;;;5075482;28;20077;-71
2022/09/03 08:55:22;;;;;;;3.58;2.13;;;21.80;43.40;;;;;;5075506;28;20025;-71
2022/09/03 08:57:51;;;;;;;2.90;1.73;;;21.90;44.60;;;;;;5074895;28;20047;-71
2022/09/03 09:00:18;;;;;;;6.10;1.80;;;22.00;44.60;;;;;;5075089;28;20036;-71
2022/09/03 09:03:02;;;;;;;5.85;1.90;;;22.10;43.80;;;;;;5075306;28;20080;-71
2022/09/03 09:05:43;;;;;;;4.38;2.10;;;22.20;42.70;;;;;;5075248;28;20070;-71
2022/09/03 09:08:32;;;;;;;3.88;1.92;;;22.20;42.70;;;;;;5075220;28;20029;-71
2022/09/03 09:11:16;;;;;;;4.55;1.85;;;22.20;42.40;;;;;;5075216;28;20084;-71
2022/09/03 09:13:44;;;;;;;2.35;1.60;;;22.30;42.80;;;;;;5075091;28;20036;-71
2022/09/03 09:16:22;;;;;;;3.60;2.00;;;22.40;42.50;;;;;;5075084;28;20051;-71
2022/09/03 09:19:26;;;;;;;5.25;2.05;;;22.50;41.70;;;;;;5075168;28;20027;-71
2022/09/03 09:22:17;;;;;;;8.45;2.00;;;22.60;41.80;;;;;;5074849;28;20033;-71
2022/09/03 09:24:49;;;;;;;5.33;2.03;;;22.60;42.20;;;;;;5075052;28;20017;-71
2022/09/03 09:27:16;;;;;;;7.72;2.08;;;22.80;41.80;;;;;;5074868;28;20017;-71
2022/09/03 09:29:45;;;;;;;4.63;1.75;;;22.80;42.00;;;;;;5074876;28;20045;-71
2022/09/03 09:32:13;;;;;;;6.13;1.90;;;22.90;41.80;;;;;;5074714;28;20067;-71
2022/09/03 09:34:40;;;;;;;4.13;1.50;;;23.00;42.10;;;;;;5074718;28;20055;-71
2022/09/03 09:37:12;;;;;;;7.35;1.88;;;23.10;41.90;;;;;;5074617;28;20044;-71
2022/09/03 09:39:39;;;;;;;2.50;1.60;;;23.30;42.00;;;;;;5073644;28;20035;-71
2022/09/03 09:42:09;;;;;;;2.92;1.65;;;23.30;40.60;;;;;;5074422;28;20102;-70
2022/09/03 09:44:42;;;;;;;3.25;1.70;;;23.30;41.20;;;;;;5074695;28;20021;-71
2022/09/03 09:47:08;;;;;;;;;;;23.40;41.30;;;;;;5074896;28;20041;-71
2022/09/03 09:49:42;;;;;;;5.45;1.75;;;23.40;39.70;;;;;;5074427;28;20367;-71
2022/09/03 09:52:13;;;;;;;2.55;1.83;;;23.50;41.00;;;;;;5074424;28;20017;-71
2022/09/03 09:54:41;;;;;;;3.05;1.90;;;23.60;40.70;;;;;;5074366;28;20029;-71
2022/09/03 09:57:16;;;;;;;6.00;1.90;;;23.70;40.20;;;;;;5074290;28;20029;-71
2022/09/03 09:59:45;;;;;;;3.28;1.65;;;23.70;40.20;;;;;;5074058;28;20104;-71
2022/09/03 10:02:27;;;;;;;2.63;1.65;;;23.80;39.20;;;;;;5074142;28;20035;-71
2022/09/03 10:05:13;;;;;;;7.93;1.70;;;23.80;39.80;;;;;;5074287;28;20025;-71
2022/09/03 10:07:39;;;;;;;3.70;1.70;;;23.90;39.50;;;;;;5074115;28;20354;-71
2022/09/03 10:10:18;;;;;;;6.13;1.70;;;23.80;37.90;;;;;;5073188;28;20045;-70
2022/09/03 10:13:08;;;;;;;6.13;1.80;;;23.90;39.90;;;;;;5073940;28;20017;-71
2022/09/03 10:15:47;;;;;;;6.35;1.88;;;24.10;39.70;;;;;;5074069;28;20025;-71
2022/09/03 10:18:33;;;;;;;3.00;1.95;;;24.30;39.40;;;;;;5074070;28;20020;-71
2022/09/03 10:21:09;;;;;;;2.80;1.80;;;24.30;38.10;;;;;;5073896;28;20040;-70
2022/09/03 10:23:50;;;;;;;4.72;1.80;;;24.30;38.40;;;;;;5073921;28;20025;-71
2022/09/03 10:26:20;;;;;;;2.17;1.88;;;24.40;38.70;;;;;;5073799;28;20423;-71
2022/09/03 10:28:50;;;;;;;8.07;2.00;;;24.40;37.50;;;;;;5073790;28;20041;-71
2022/09/03 10:31:45;;;;;;;6.70;1.85;;;24.40;38.60;;;;;;5073698;28;20365;-71
2022/09/03 10:34:23;;;;;;;3.78;1.90;;;24.40;38.50;;;;;;5065191;28;20048;-70
2022/09/03 10:37:17;;;;;;;7.10;2.40;;;24.50;38.70;;;;;;5073576;28;20025;-71
2022/09/03 10:40:03;;;;;;;3.97;1.80;;;24.70;38.70;;;;;;5073685;28;20025;-71
2022/09/03 10:42:44;;;;;;;3.85;2.00;;;24.80;37.50;;;;;;5073578;28;20052;-70
2022/09/03 10:45:18;;;;;;;6.93;1.90;;;24.90;36.80;;;;;;5073533;28;20017;-71
2022/09/03 10:47:50;;;;;;;4.43;1.60;;;24.90;37.50;;;;;;5073454;28;20076;-71
2022/09/03 10:50:29;;;;;;;2.40;1.50;;;25.00;38.00;;;;;;5073460;28;20088;-71
2022/09/03 10:53:04;;;;;;;5.65;1.50;;;25.10;37.70;;;;;;5073504;28;20021;-71
2022/09/03 10:55:46;;;;;;;2.35;1.60;;;25.20;38.30;;;;;;5073509;28;20047;-71
2022/09/03 10:58:44;;;;;;;2.70;1.90;;;25.30;36.50;;;;;;5073447;28;20032;-71
2022/09/03 11:01:26;;;;;;;3.83;1.88;;;25.40;36.90;;;;;;5073348;28;20037;-71
2022/09/03 11:03:58;;;;;;;;;;;25.50;36.60;;;;;;5073673;28;20026;-71
2022/09/03 11:06:34;;;;;;;3.67;2.15;;;25.50;36.50;;;;;;5073361;28;19935;-71
2022/09/03 11:09:12;;;;;;;3.25;1.77;;;25.50;36.60;;;;;;5073260;28;20017;-71
2022/09/03 11:11:44;;;;;;;3.47;1.83;;;25.60;36.50;;;;;;5073133;28;20499;-71
2022/09/03 11:14:12;;;;;;;;;;;25.70;36.80;;;;;;5073714;28;20025;-71
2022/09/03 11:16:54;;;;;;;3.40;1.60;;;25.70;35.90;;;;;;5073213;28;19905;-71
2022/09/03 11:19:39;;;;;;;2.75;1.70;;;25.80;36.60;;;;;;5073157;28;20025;-71
2022/09/03 11:22:06;;;;;;;3.00;1.70;;;25.90;36.20;;;;;;5076810;28;20032;-71
2022/09/03 11:24:34;;;;;;;4.13;1.65;;;26.00;36.20;;;;;;5077146;28;20045;-71
2022/09/03 11:27:02;;;;;;;3.83;1.92;;;26.10;36.30;;;;;;5077108;28;20021;-71
2022/09/03 11:29:45;;;;;;;3.03;1.67;;;26.20;36.00;;;;;;5077022;28;20020;-71
2022/09/03 11:32:23;;;;;;;4.22;1.80;;;26.20;35.30;;;;;;5077062;28;20090;-71
2022/09/03 11:34:53;;;;;;;1.95;1.73;;;26.20;34.60;;;;;;5077008;28;20052;-71
2022/09/03 11:37:26;;;;;;;2.97;1.80;;;26.10;35.00;;;;;;5077016;28;20029;-70
2022/09/03 11:40:05;;;;;;;3.92;1.77;;;26.10;35.10;;;;;;5077042;28;20025;-70
2022/09/03 11:42:37;;;;;;;4.40;2.17;;;26.10;35.20;;;;;;5076758;28;20055;-70
2022/09/03 11:45:28;;;;;;;3.28;1.98;;;26.00;34.20;;;;;;5076766;28;20484;-70
2022/09/03 11:47:55;;;;;;;3.45;1.90;;;26.00;34.30;;;;;;5076869;28;20040;-70
2022/09/03 11:50:28;;;;;;;8.88;1.80;;;26.00;35.10;;;;;;5076857;28;20017;-70
2022/09/03 11:53:07;;;;;;;5.90;2.10;;;26.10;35.00;;;;;;5076806;28;20094;-70
2022/09/03 11:56:11;;;;;;;2.85;2.10;;;26.00;34.60;;;;;;5076740;28;20476;-71
2022/09/03 11:58:41;;;;;;;1.90;1.70;;;26.00;35.60;;;;;;5076431;28;20083;-71
2022/09/03 12:01:19;;;;;;;2.50;1.70;;;26.20;35.00;;;;;;5076499;28;20052;-71
2022/09/03 12:03:53;;;;;;;4.00;2.00;;;26.30;34.70;;;;;;5076605;28;20043;-71
2022/09/03 12:06:53;;;;;;;5.20;2.33;;;26.30;34.10;;;;;;5076341;28;20111;-71
2022/09/03 12:09:29;;;;;;;2.92;1.80;;;26.40;34.80;;;;;;5076324;28;20029;-70
2022/09/03 12:12:26;;;;;;;3.10;2.05;;;26.40;35.20;;;;;;5076461;28;20032;-71
2022/09/03 12:14:56;;;;;;;3.15;2.03;;;26.70;35.30;;;;;;5076300;28;20017;-71
2022/09/03 12:17:37;;;;;;;5.78;2.08;;;26.70;34.40;;;;;;5076138;28;20021;-70
2022/09/03 12:20:11;;;;;;;3.92;2.15;;;26.70;34.00;;;;;;5076186;28;20021;-70
2022/09/03 12:22:37;;;;;;;3.78;1.90;;;26.80;34.40;;;;;;5076297;28;20035;-70
2022/09/03 12:25:14;;;;;;;5.32;2.03;;;26.90;34.50;;;;;;5076037;28;20029;-70
2022/09/03 12:27:43;;;;;;;5.15;1.83;;;27.00;34.30;;;;;;5076021;28;20021;-70
2022/09/03 12:30:18;;;;;;;2.60;2.08;;;27.00;34.20;;;;;;5075890;28;20084;-70
2022/09/03 12:32:46;;;;;;;5.28;2.10;;;27.20;34.70;;;;;;5075088;28;20029;-70
2022/09/03 12:35:17;;;;;;;3.03;1.70;;;27.30;34.30;;;;;;5075856;28;20028;-70
2022/09/03 12:37:44;;;;;;;6.10;2.23;;;27.30;34.20;;;;;;5075845;28;20021;-70
2022/09/03 12:40:22;;;;;;;5.38;2.00;;;27.30;33.60;;;;;;5075805;28;20017;-70
2022/09/03 12:42:49;;;;;;;6.75;2.42;;;27.30;33.20;;;;;;5075714;28;20033;-70
2022/09/03 12:45:22;;;;;;;2.40;1.80;;;27.30;33.80;;;;;;5075638;28;20027;-70
2022/09/03 12:47:48;;;;;;;5.30;2.10;;;27.50;34.70;;;;;;5075575;28;20025;-70
2022/09/03 12:50:22;;;;;;;3.35;1.90;;;27.50;33.50;;;;;;5075610;28;20033;-70
2022/09/03 12:52:49;;;;;;;3.67;1.90;;;27.50;32.80;;;;;;5075599;28;20013;-70
2022/09/03 12:55:49;;;;;;;3.35;1.85;;;27.40;33.00;;;;;;5075431;28;20079;-70
2022/09/03 12:58:55;;;;;;;2.58;1.95;;;27.20;32.70;;;;;;5075474;28;20048;-70
2022/09/03 13:01:29;;;;;;;6.25;1.90;;;27.20;33.00;;;;;;5070549;28;20053;-70
2022/09/03 13:04:06;;;;;;;2.08;1.70;;;27.20;33.80;;;;;;5075386;28;20028;-69
2022/09/03 13:06:55;;;;;;;3.83;1.92;;;27.30;34.10;;;;;;5075253;28;20021;-70
2022/09/03 13:09:25;;;;;;;2.72;1.80;;;27.50;32.70;;;;;;5075128;28;20021;-70
2022/09/03 13:11:54;;;;;;;3.13;1.95;;;27.40;32.40;;;;;;5075191;28;20055;-70
2022/09/03 13:14:19;;;;;;;4.93;1.90;;;27.40;32.60;;;;;;5075123;28;20021;-70
2022/09/03 13:16:45;;;;;;;2.05;1.85;;;27.50;33.20;;;;;;5075037;28;20048;-70